• Join FlightAware (Why Join?)
  • Login
  • US Flag 
07:12PM EDT


 

Airport Tracker/Info


-or-


 

Live Flight TrackerFlight Track Log ✈ N63944 ✈ 05-Oct-2013 ✈ KBKL - 14G

Flight Track Log - Related Links

Times and Time Zones

All times are in EDT time to prevent confusion due to time zone crossing. See the N63944 flight status page for this flight to view local times or setup timezone preferences in your user account.

Time Position Orientation Groundspeed Altitude Reporting Facility
EDT Latitude Longitude Course Direction KTS MPH feet Rate Location/Type
04:47PM 41.5100 -81.6992 325° Northwest 101 116 1,100  Level Cleveland Center
04:48PM 41.5353 -81.7228 325° Northwest 130 150 2,300 1,020 Climbing Cleveland Center
04:49PM 41.5533 -81.7261 352° North 127 146 3,000 780 Climbing Cleveland Center
04:49PM 41.5653 -81.7389 321° Northwest 123 142 3,100 960 Climbing Cleveland Center
04:50PM 41.5781 -81.7642 304° West 123 142 4,000 1,080 Climbing Cleveland Center
04:50PM 41.5853 -81.7728 318° Northwest 114 131 4,200 960 Climbing Cleveland Center
04:51PM 41.5928 -81.7978 292° West 117 135 5,000 960 Climbing Cleveland Center
04:51PM 41.5925 -81.8075 268° West 87 100 5,200 960 Climbing Cleveland Center
04:52PM 41.5875 -81.8281 252° West 92 106 6,000 480 Climbing Cleveland Center
04:53PM 41.5817 -81.8694 259° West 103 119 6,100 60 Climbing Cleveland Center
04:53PM 41.5817 -81.8814 270° West 128 147 6,100 -120 Level Cleveland Center
04:54PM 41.5742 -81.9178 255° West 126 145 6,000 -240 Descending Cleveland Center
04:54PM 41.5725 -81.9331 262° West 136 157 5,900  Descending Cleveland Center
04:55PM 41.5650 -81.9650 253° West 131 151 6,000 180 Climbing Cleveland Center
04:55PM 41.5642 -81.9792 266° West 126 145 6,100  Climbing Cleveland Center
04:56PM 41.5567 -82.0122 253° West 130 150 6,000 -120 Descending Cleveland Center
04:56PM 41.5556 -82.0253 264° West 130 150 6,000  Level Cleveland Center
04:57PM 41.5486 -82.0589 255° West 129 148 6,000  Level Cleveland Center
04:57PM 41.5469 -82.0714 260° West 131 151 6,000  Level Cleveland Center
04:58PM 41.5364 -82.1172 253° West 128 147 6,000  Level Cleveland Center
04:59PM 41.5283 -82.1517 253° West 129 148 6,000  Level Cleveland Center
04:59PM 41.5247 -82.1739 258° West 137 158 6,000  Level Cleveland Center
05:00PM 41.5197 -82.2011 256° West 133 153 6,000  Level Cleveland Center
05:00PM 41.5181 -82.2203 263° West 131 151 6,000  Level Cleveland Center
05:01PM 41.5114 -82.2486 253° West 132 152 6,000  Level Cleveland Center
05:01PM 41.5078 -82.2633 252° West 132 152 6,000  Level Cleveland Center
05:02PM 41.4989 -82.3119 256° West 135 155 6,000  Level Cleveland Center
05:03PM 41.4917 -82.3542 257° West 135 155 6,000  Level Cleveland Center
05:03PM 41.4900 -82.3608 252° West 135 155 6,000  Level Cleveland Center
05:04PM 41.4825 -82.4014 256° West 132 152 6,000  Level Cleveland Center
05:04PM 41.4814 -82.4069 255° West 132 152 6,000  Level Cleveland Center
05:05PM 41.4722 -82.4556 256° West 134 154 6,000 -60 Level Cleveland Center
05:06PM 41.4633 -82.5044 256° West 137 158 5,900  Descending Cleveland Center
05:07PM 41.4542 -82.5497 255° West 138 159 6,000  Climbing Cleveland Center
05:07PM 41.4519 -82.5556 243° Southwest 140 161 5,900  Descending Cleveland Center
05:08PM 41.4408 -82.5989 251° West 139 160 6,000  Climbing Cleveland Center
05:09PM 41.4328 -82.6517 259° West 143 165 6,000  Level Cleveland Center
05:10PM 41.4225 -82.7019 255° West 140 161 6,000  Level Cleveland Center
05:11PM 41.4139 -82.7508 257° West 136 157 6,000  Level Cleveland Center
05:12PM 41.4031 -82.8031 255° West 143 165 6,000  Level Cleveland Center
05:13PM 41.3931 -82.8517 255° West 137 158 6,000  Level Cleveland Center
05:14PM 41.3847 -82.8983 257° West 130 150 6,000 -360 Level Cleveland Center
05:15PM 41.3728 -82.9408 249° West 124 143 5,300 -840 Descending Cleveland Center
05:16PM 41.3675 -82.9764 259° West 103 119 4,300 -720 Descending Cleveland Center
05:17PM 41.3625 -83.0161 260° West 101 116 3,900 -420 Descending Cleveland Center